createdAt,value
2019-03-29T00:01:39.855Z,13.30
2019-03-29T00:04:09.315Z,13.30
2019-03-29T00:06:39.771Z,13.30
2019-03-29T00:09:09.909Z,13.30
2019-03-29T00:11:39.340Z,13.30
2019-03-29T00:14:08.779Z,13.30
2019-03-29T00:16:38.247Z,13.30
2019-03-29T00:19:08.022Z,13.20
2019-03-29T00:21:37.527Z,13.20
2019-03-29T00:24:07.419Z,13.20
2019-03-29T00:26:37.031Z,13.20
2019-03-29T00:29:06.536Z,13.20
2019-03-29T00:31:36.416Z,13.10
2019-03-29T00:34:05.874Z,13.10
2019-03-29T00:36:35.675Z,13.00
2019-03-29T00:39:06.580Z,12.90
2019-03-29T00:41:36.283Z,12.80
2019-03-29T00:44:05.728Z,12.80
2019-03-29T00:46:35.264Z,12.80
2019-03-29T00:49:04.784Z,12.80
2019-03-29T00:51:34.274Z,12.80
2019-03-29T00:54:03.949Z,12.80
2019-03-29T00:56:33.388Z,12.80
2019-03-29T00:59:02.902Z,12.90
2019-03-29T01:01:32.436Z,12.90
2019-03-29T01:04:02.971Z,12.90
2019-03-29T01:06:32.652Z,13.00
2019-03-29T01:09:03.287Z,12.90
2019-03-29T01:11:32.802Z,12.90
2019-03-29T01:14:02.319Z,12.90
2019-03-29T01:16:32.023Z,12.90
2019-03-29T01:19:01.511Z,12.80
2019-03-29T01:21:31.017Z,12.90
2019-03-29T01:24:00.490Z,12.90
2019-03-29T01:26:29.936Z,12.90
2019-03-29T01:28:59.671Z,12.90
2019-03-29T01:31:29.219Z,12.90
2019-03-29T01:33:58.722Z,12.90
2019-03-29T01:36:28.303Z,12.90
2019-03-29T01:38:58.518Z,12.90
2019-03-29T01:41:28.012Z,12.90
2019-03-29T01:43:57.969Z,12.90
2019-03-29T01:46:27.488Z,12.80
2019-03-29T01:48:56.932Z,12.80
2019-03-29T01:51:27.231Z,12.80
2019-03-29T01:53:57.792Z,12.80
2019-03-29T01:56:27.227Z,12.70
2019-03-29T01:58:56.728Z,12.60
2019-03-29T02:01:26.257Z,12.60
2019-03-29T02:03:56.013Z,12.50
2019-03-29T02:06:25.442Z,12.50
2019-03-29T02:08:54.923Z,12.50
2019-03-29T02:11:25.706Z,12.40
2019-03-29T02:13:55.144Z,12.30
2019-03-29T02:16:24.675Z,12.20
2019-03-29T02:18:54.120Z,12.10
2019-03-29T02:21:25.035Z,12.10
2019-03-29T02:23:54.564Z,12.10
2019-03-29T02:26:24.011Z,12.00
2019-03-29T02:28:53.436Z,11.90
2019-03-29T02:31:25.894Z,11.80
2019-03-29T02:33:54.536Z,11.80
2019-03-29T02:36:24.066Z,11.70
2019-03-29T02:38:55.475Z,11.60
2019-03-29T02:41:24.855Z,11.60
2019-03-29T02:43:54.369Z,11.60
2019-03-29T02:46:25.634Z,11.60
2019-03-29T02:48:55.168Z,11.60
2019-03-29T02:51:24.691Z,11.60
2019-03-29T02:53:54.301Z,11.60
2019-03-29T02:56:24.114Z,11.70
2019-03-29T02:58:53.608Z,11.80
2019-03-29T03:01:23.076Z,11.80
2019-03-29T03:03:52.517Z,11.80
2019-03-29T03:06:22.026Z,11.80
2019-03-29T03:08:51.628Z,11.90
2019-03-29T03:11:21.074Z,12.00
2019-03-29T03:13:51.866Z,12.00
2019-03-29T03:16:21.471Z,12.00
2019-03-29T03:18:50.976Z,11.90
2019-03-29T03:21:20.417Z,11.90
2019-03-29T03:23:49.972Z,11.90
2019-03-29T03:26:19.472Z,11.90
2019-03-29T03:28:49.301Z,12.00
2019-03-29T03:31:19.004Z,12.00
2019-03-29T03:33:48.500Z,11.80
2019-03-29T03:36:18.069Z,11.80
2019-03-29T03:38:47.721Z,11.80
2019-03-29T03:41:17.551Z,11.80
2019-03-29T03:43:47.089Z,11.80
2019-03-29T03:46:16.555Z,11.70
2019-03-29T03:48:46.060Z,11.70
2019-03-29T03:51:15.818Z,11.60
2019-03-29T03:53:45.900Z,11.70
2019-03-29T03:56:17.556Z,11.60
2019-03-29T03:58:47.596Z,11.50
2019-03-29T04:01:17.128Z,11.60
2019-03-29T04:03:46.901Z,11.70
2019-03-29T04:06:16.495Z,11.60
2019-03-29T04:08:46.177Z,11.70
2019-03-29T04:11:15.618Z,11.80
2019-03-29T04:13:45.413Z,11.80
2019-03-29T04:16:16.246Z,11.90
2019-03-29T04:18:46.053Z,11.90
2019-03-29T04:21:15.551Z,11.90
2019-03-29T04:23:45.228Z,11.90
2019-03-29T04:26:14.728Z,11.90
2019-03-29T04:28:44.583Z,12.00
2019-03-29T04:31:14.253Z,12.10
2019-03-29T04:33:43.796Z,12.10
2019-03-29T04:36:13.607Z,12.10
2019-03-29T04:38:43.145Z,12.10
2019-03-29T04:41:12.722Z,12.10
2019-03-29T04:43:42.298Z,11.90
2019-03-29T04:46:11.904Z,11.80
2019-03-29T04:48:41.367Z,11.90
2019-03-29T04:51:11.244Z,12.00
2019-03-29T04:53:41.048Z,12.00
2019-03-29T04:56:10.562Z,12.00
2019-03-29T04:58:40.417Z,12.00
2019-03-29T05:01:09.923Z,12.00
2019-03-29T05:03:39.373Z,12.00
2019-03-29T05:06:08.815Z,11.90
2019-03-29T05:08:38.292Z,12.00
2019-03-29T05:11:07.821Z,11.90
2019-03-29T05:13:37.708Z,12.00
2019-03-29T05:16:07.235Z,12.00
2019-03-29T05:18:37.980Z,12.00
2019-03-29T05:21:07.419Z,12.00
2019-03-29T05:23:36.879Z,12.00
2019-03-29T05:26:06.315Z,12.10
2019-03-29T05:28:36.078Z,12.10
2019-03-29T05:31:05.622Z,12.20
2019-03-29T05:33:35.127Z,12.20
2019-03-29T05:36:04.993Z,12.20
2019-03-29T05:38:35.112Z,12.30
2019-03-29T05:41:04.619Z,12.30
2019-03-29T05:43:34.195Z,12.30
2019-03-29T05:46:03.734Z,12.30
2019-03-29T05:48:33.244Z,12.40
2019-03-29T05:51:02.679Z,12.40
2019-03-29T05:53:32.144Z,12.40
2019-03-29T05:56:01.747Z,12.30
2019-03-29T05:58:31.305Z,12.40
2019-03-29T06:01:00.915Z,12.50
2019-03-29T06:03:30.773Z,12.60
2019-03-29T06:06:00.581Z,12.60
2019-03-29T06:08:30.044Z,12.60
2019-03-29T06:10:59.482Z,12.60
2019-03-29T06:13:29.034Z,12.70
2019-03-29T06:16:18.031Z,12.70
2019-03-29T06:18:47.639Z,12.80
2019-03-29T06:21:23.142Z,12.90
2019-03-29T06:23:53.076Z,12.90
2019-03-29T06:26:41.913Z,12.90
2019-03-29T06:29:11.343Z,12.90
2019-03-29T06:31:40.872Z,13.00
2019-03-29T06:34:10.532Z,13.00
2019-03-29T06:36:41.618Z,13.00
2019-03-29T06:39:11.758Z,13.00
2019-03-29T06:41:41.224Z,13.10
2019-03-29T06:44:10.740Z,13.20
2019-03-29T06:46:40.355Z,13.30
2019-03-29T06:49:09.818Z,13.30
2019-03-29T06:51:39.351Z,13.40
2019-03-29T06:54:08.836Z,13.50
2019-03-29T06:56:38.379Z,13.60
2019-03-29T06:59:07.813Z,13.70
2019-03-29T07:01:37.239Z,13.70
2019-03-29T07:04:06.776Z,13.70
2019-03-29T07:06:36.280Z,13.80
2019-03-29T07:09:07.131Z,13.80
2019-03-29T07:11:39.665Z,13.80
2019-03-29T07:14:08.236Z,14.00
2019-03-29T07:16:38.133Z,14.00
2019-03-29T07:19:07.760Z,14.00
2019-03-29T07:21:37.267Z,14.20
2019-03-29T07:24:07.856Z,14.20
2019-03-29T07:26:37.407Z,14.30
2019-03-29T07:29:06.908Z,14.40
2019-03-29T07:31:36.352Z,14.40
2019-03-29T07:34:06.188Z,14.60
2019-03-29T07:36:35.620Z,14.60
2019-03-29T07:39:06.482Z,14.80
2019-03-29T07:41:36.087Z,14.90
2019-03-29T07:44:05.995Z,15.00
2019-03-29T07:46:35.433Z,14.90
2019-03-29T07:49:04.968Z,14.90
2019-03-29T07:51:34.412Z,15.00
2019-03-29T07:54:04.003Z,15.00
2019-03-29T07:56:34.086Z,15.20
2019-03-29T07:59:04.053Z,15.20
2019-03-29T08:01:33.580Z,15.20
2019-03-29T08:04:03.111Z,15.10
2019-03-29T08:06:32.535Z,15.00
2019-03-29T08:09:02.054Z,14.90
2019-03-29T08:11:44.949Z,14.80
2019-03-29T08:14:03.181Z,14.60
2019-03-29T08:16:33.197Z,14.60
2019-03-29T08:19:02.733Z,14.40
2019-03-29T08:21:32.243Z,14.30
2019-03-29T08:24:02.017Z,14.20
2019-03-29T08:26:32.816Z,14.20
2019-03-29T08:29:02.254Z,14.20
2019-03-29T08:31:31.769Z,14.40
2019-03-29T08:34:01.675Z,14.80
2019-03-29T08:36:33.020Z,15.00
2019-03-29T08:39:02.471Z,15.20
2019-03-29T08:41:31.966Z,15.60
2019-03-29T08:44:01.536Z,16.00
2019-03-29T08:46:31.452Z,16.30
2019-03-29T08:49:01.216Z,16.20
2019-03-29T08:51:30.647Z,16.10
2019-03-29T08:54:00.553Z,16.30
2019-03-29T08:56:30.083Z,16.40
2019-03-29T08:58:59.588Z,16.60
2019-03-29T09:01:29.020Z,16.70
2019-03-29T09:04:05.180Z,17.00
2019-03-29T09:06:30.457Z,17.20
2019-03-29T09:09:03.438Z,17.30
2019-03-29T09:11:32.976Z,17.40
2019-03-29T09:14:02.555Z,17.40
2019-03-29T09:16:32.198Z,17.50
2019-03-29T09:19:01.663Z,17.60
2019-03-29T09:21:31.203Z,17.80
2019-03-29T09:24:00.660Z,17.90
2019-03-29T09:26:30.196Z,17.80
2019-03-29T09:29:01.008Z,17.70
2019-03-29T09:31:30.454Z,18.00
2019-03-29T09:34:00.051Z,18.20
2019-03-29T09:36:29.561Z,18.20
2019-03-29T09:38:59.000Z,18.10
2019-03-29T09:41:28.473Z,18.10
2019-03-29T09:43:57.975Z,18.40
2019-03-29T09:46:27.434Z,18.30
2019-03-29T09:48:57.004Z,18.40
2019-03-29T09:51:26.505Z,18.40
2019-03-29T09:53:57.904Z,18.50
2019-03-29T09:56:37.911Z,18.70
2019-03-29T09:58:58.371Z,18.70
2019-03-29T10:01:27.951Z,18.70
2019-03-29T10:03:57.588Z,18.60
2019-03-29T10:06:27.024Z,18.60
2019-03-29T10:08:56.541Z,18.90
2019-03-29T10:11:26.381Z,19.10
2019-03-29T10:13:56.127Z,19.00
2019-03-29T10:16:45.785Z,18.80
2019-03-29T10:19:15.333Z,18.80
2019-03-29T10:21:45.180Z,19.10
2019-03-29T10:24:14.716Z,19.40
2019-03-29T10:26:44.164Z,19.70
2019-03-29T10:29:13.671Z,21.30
2019-03-29T10:31:43.509Z,21.30
2019-03-29T10:34:13.088Z,22.60
2019-03-29T10:36:42.520Z,22.50
2019-03-29T10:39:12.272Z,21.50
2019-03-29T10:41:41.787Z,21.40
2019-03-29T10:44:30.667Z,22.20
2019-03-29T10:47:00.175Z,21.60
2019-03-29T10:49:29.687Z,23.40
2019-03-29T10:51:59.160Z,25.70
2019-03-29T10:54:28.740Z,27.90
2019-03-29T10:56:58.624Z,29.00
2019-03-29T10:59:28.342Z,29.60
2019-03-29T11:01:57.867Z,30.00
2019-03-29T11:04:27.377Z,29.90
2019-03-29T11:06:56.919Z,30.30
2019-03-29T11:09:26.449Z,30.70
2019-03-29T11:11:55.883Z,30.80
2019-03-29T11:14:25.428Z,31.50
2019-03-29T11:17:14.316Z,32.60
2019-03-29T11:19:44.130Z,32.80
2019-03-29T11:22:13.782Z,32.50
2019-03-29T11:24:43.289Z,33.30
2019-03-29T11:27:12.954Z,33.10
2019-03-29T11:29:42.762Z,33.40
2019-03-29T11:32:12.223Z,32.60
2019-03-29T11:34:41.756Z,31.80
2019-03-29T11:37:11.207Z,30.10
2019-03-29T11:39:40.720Z,32.00
2019-03-29T11:42:10.462Z,33.90
2019-03-29T11:44:40.027Z,34.30
2019-03-29T11:47:10.013Z,34.30
2019-03-29T11:49:39.620Z,33.10
2019-03-29T11:52:09.057Z,29.50
2019-03-29T11:54:38.719Z,27.70
2019-03-29T11:57:08.644Z,29.10
2019-03-29T11:59:40.180Z,31.10
2019-03-29T12:02:09.620Z,32.30
2019-03-29T12:04:39.717Z,33.80
2019-03-29T12:07:09.225Z,34.00
2019-03-29T12:09:38.755Z,34.60
2019-03-29T12:12:08.364Z,35.10
2019-03-29T12:14:37.800Z,35.30
2019-03-29T12:17:07.235Z,36.40
2019-03-29T12:19:36.864Z,35.10
2019-03-29T12:22:06.837Z,35.50
2019-03-29T12:24:36.348Z,36.10
2019-03-29T12:27:06.159Z,37.60
2019-03-29T12:29:35.752Z,37.30
2019-03-29T12:32:05.528Z,37.30
2019-03-29T12:34:35.107Z,37.00
2019-03-29T12:37:04.624Z,36.50
2019-03-29T12:39:34.239Z,35.90
2019-03-29T12:42:03.691Z,37.20
2019-03-29T12:44:33.200Z,37.90
2019-03-29T12:47:02.640Z,38.80
2019-03-29T12:49:32.475Z,38.20
2019-03-29T12:52:01.943Z,38.10
2019-03-29T12:54:31.458Z,38.30
2019-03-29T12:57:01.375Z,38.80
2019-03-29T12:59:32.854Z,39.50
2019-03-29T13:02:02.165Z,39.40
2019-03-29T13:04:32.022Z,40.10
2019-03-29T13:07:01.545Z,39.40
2019-03-29T13:09:31.052Z,39.60
2019-03-29T13:12:01.252Z,39.00
2019-03-29T13:14:30.775Z,39.30
2019-03-29T13:17:02.794Z,37.70
2019-03-29T13:19:31.564Z,38.10
2019-03-29T13:22:01.067Z,39.20
2019-03-29T13:24:30.928Z,39.90
2019-03-29T13:27:00.464Z,40.70
2019-03-29T13:29:29.909Z,39.40
2019-03-29T13:31:59.852Z,37.90
2019-03-29T13:34:29.761Z,39.00
2019-03-29T13:36:59.217Z,39.10
2019-03-29T13:39:30.374Z,40.40
2019-03-29T13:42:00.278Z,41.50
2019-03-29T13:44:29.793Z,42.00
2019-03-29T13:46:59.636Z,42.10
2019-03-29T13:49:29.448Z,42.20
2019-03-29T13:51:58.892Z,42.60
2019-03-29T13:54:28.788Z,42.70
2019-03-29T13:56:58.688Z,41.10
2019-03-29T13:59:28.263Z,40.40
2019-03-29T14:01:57.996Z,38.00
2019-03-29T14:04:27.567Z,39.40
2019-03-29T14:06:57.084Z,38.10
2019-03-29T14:09:29.222Z,39.50
2019-03-29T14:11:57.765Z,39.80
2019-03-29T14:14:37.683Z,40.00
2019-03-29T14:16:58.816Z,41.00
2019-03-29T14:19:28.957Z,41.20
2019-03-29T14:21:58.472Z,41.90
2019-03-29T14:24:27.976Z,42.10
2019-03-29T14:26:57.614Z,41.70
2019-03-29T14:29:27.390Z,42.10
2019-03-29T14:31:56.988Z,42.20
2019-03-29T14:34:26.548Z,42.20
2019-03-29T14:36:59.183Z,40.70
2019-03-29T14:39:27.655Z,41.30
2019-03-29T14:41:57.332Z,41.70
2019-03-29T14:44:27.144Z,41.90
2019-03-29T14:46:56.961Z,42.70
2019-03-29T14:49:26.772Z,41.70
2019-03-29T14:51:56.217Z,42.30
2019-03-29T14:54:26.089Z,42.10
2019-03-29T14:56:55.725Z,39.60
2019-03-29T14:59:25.618Z,39.50
2019-03-29T15:01:55.634Z,40.00
2019-03-29T15:04:25.237Z,40.00
2019-03-29T15:06:54.896Z,40.10
2019-03-29T15:09:25.356Z,40.60
2019-03-29T15:11:55.212Z,39.90
2019-03-29T15:14:24.996Z,39.30
2019-03-29T15:16:54.511Z,39.50
2019-03-29T15:19:24.072Z,39.50
2019-03-29T15:21:53.586Z,37.80
2019-03-29T15:24:23.166Z,38.10
2019-03-29T15:26:52.763Z,38.50
2019-03-29T15:29:22.204Z,38.80
2019-03-29T15:31:51.647Z,39.40
2019-03-29T15:34:21.191Z,39.30
2019-03-29T15:36:50.636Z,38.40
2019-03-29T15:39:20.587Z,36.80
2019-03-29T15:41:50.131Z,35.60
2019-03-29T15:44:19.567Z,36.00
2019-03-29T15:46:51.470Z,36.80
2019-03-29T15:49:20.306Z,37.00
2019-03-29T15:51:49.748Z,36.70
2019-03-29T15:54:19.625Z,36.70
2019-03-29T15:56:49.106Z,36.90
2019-03-29T15:59:18.937Z,36.60
2019-03-29T16:01:48.376Z,36.00
2019-03-29T16:04:17.843Z,35.90
2019-03-29T16:06:47.758Z,35.60
2019-03-29T16:09:17.472Z,34.90
2019-03-29T16:11:47.333Z,34.80
2019-03-29T16:14:16.915Z,34.90
2019-03-29T16:16:46.500Z,34.20
2019-03-29T16:19:16.132Z,34.10
2019-03-29T16:21:45.576Z,34.20
2019-03-29T16:24:15.008Z,34.20
2019-03-29T16:26:44.540Z,34.20
2019-03-29T16:29:14.325Z,34.00
2019-03-29T16:31:43.769Z,33.70
2019-03-29T16:34:13.387Z,32.90
2019-03-29T16:36:43.136Z,32.00
2019-03-29T16:39:13.259Z,31.70
2019-03-29T16:41:42.940Z,31.00
2019-03-29T16:44:12.784Z,31.60
2019-03-29T16:46:42.592Z,32.00
2019-03-29T16:49:12.069Z,32.00
2019-03-29T16:51:41.518Z,30.60
2019-03-29T16:54:11.025Z,30.40
2019-03-29T16:56:40.623Z,30.30
2019-03-29T16:59:10.138Z,30.40
2019-03-29T17:01:39.653Z,29.80
2019-03-29T17:04:09.187Z,28.60
2019-03-29T17:06:38.936Z,27.40
2019-03-29T17:09:08.905Z,26.70
2019-03-29T17:11:38.367Z,26.00
2019-03-29T17:14:07.840Z,25.60
2019-03-29T17:16:37.278Z,25.20
2019-03-29T17:19:06.875Z,24.90
2019-03-29T17:21:36.327Z,24.60
2019-03-29T17:24:05.908Z,24.30
2019-03-29T17:26:35.455Z,24.20
2019-03-29T17:29:04.964Z,23.90
2019-03-29T17:31:34.804Z,23.80
2019-03-29T17:34:04.340Z,23.60
2019-03-29T17:36:33.786Z,23.40
2019-03-29T17:39:03.368Z,23.30
2019-03-29T17:41:32.898Z,23.10
2019-03-29T17:44:02.399Z,22.80
2019-03-29T17:46:31.924Z,22.70
2019-03-29T17:49:01.511Z,22.50
2019-03-29T17:51:31.059Z,22.40
2019-03-29T17:54:00.855Z,22.30
2019-03-29T17:56:30.396Z,22.20
2019-03-29T17:58:59.907Z,22.10
2019-03-29T18:01:29.434Z,22.00
2019-03-29T18:03:59.245Z,21.80
2019-03-29T18:06:28.682Z,21.70
2019-03-29T18:08:58.184Z,21.50
2019-03-29T18:11:27.719Z,21.30
2019-03-29T18:13:57.609Z,21.10
2019-03-29T18:16:30.984Z,20.90
2019-03-29T18:18:58.420Z,20.60
2019-03-29T18:21:28.167Z,20.50
2019-03-29T18:23:57.670Z,20.40
2019-03-29T18:26:27.792Z,20.40
2019-03-29T18:28:57.293Z,20.40
2019-03-29T18:31:26.801Z,20.40
2019-03-29T18:33:56.271Z,20.40
2019-03-29T18:36:25.862Z,20.30
2019-03-29T18:38:55.857Z,20.20
2019-03-29T18:41:25.756Z,20.10
2019-03-29T18:43:55.267Z,20.10
2019-03-29T18:46:25.287Z,19.90
2019-03-29T18:48:55.011Z,19.80
2019-03-29T18:51:24.448Z,19.70
2019-03-29T18:53:53.887Z,19.70
2019-03-29T18:56:23.430Z,19.50
2019-03-29T18:58:52.935Z,19.30
2019-03-29T19:01:22.693Z,19.10
2019-03-29T19:03:52.231Z,18.90
2019-03-29T19:06:22.108Z,18.90
2019-03-29T19:08:51.621Z,18.80
2019-03-29T19:11:21.239Z,18.60
2019-03-29T19:13:50.756Z,18.40
2019-03-29T19:16:20.193Z,18.40
2019-03-29T19:18:49.656Z,18.40
2019-03-29T19:21:19.235Z,18.40
2019-03-29T19:23:48.740Z,18.20
2019-03-29T19:26:18.328Z,18.10
2019-03-29T19:28:47.780Z,17.40
2019-03-29T19:31:17.325Z,17.50
2019-03-29T19:33:46.835Z,17.60
2019-03-29T19:36:18.704Z,17.60
2019-03-29T19:38:48.526Z,17.60
2019-03-29T19:41:18.180Z,17.60
2019-03-29T19:43:47.924Z,17.60
2019-03-29T19:46:17.435Z,17.50
2019-03-29T19:48:46.927Z,17.40
2019-03-29T19:51:16.456Z,17.40
2019-03-29T19:53:45.974Z,17.30
2019-03-29T19:56:15.755Z,17.20
2019-03-29T19:58:45.284Z,17.10
2019-03-29T20:01:14.791Z,17.10
2019-03-29T20:03:44.425Z,17.00
2019-03-29T20:06:14.064Z,16.90
2019-03-29T20:08:43.816Z,16.80
2019-03-29T20:11:13.524Z,16.70
2019-03-29T20:13:42.955Z,16.70
2019-03-29T20:16:12.396Z,16.60
2019-03-29T20:18:41.989Z,16.50
2019-03-29T20:21:11.500Z,16.40
2019-03-29T20:23:41.101Z,16.30
2019-03-29T20:26:10.717Z,16.20
2019-03-29T20:28:40.377Z,16.10
2019-03-29T20:31:09.952Z,16.10
2019-03-29T20:33:39.460Z,16.00
2019-03-29T20:36:08.976Z,15.90
2019-03-29T20:38:38.414Z,15.80
2019-03-29T20:41:08.393Z,15.80
2019-03-29T20:43:37.904Z,15.80
2019-03-29T20:46:10.888Z,15.60
2019-03-29T20:48:40.364Z,15.50
2019-03-29T20:51:09.799Z,15.40
2019-03-29T20:53:39.238Z,15.40
2019-03-29T20:56:08.707Z,15.20
2019-03-29T20:58:38.145Z,15.00
2019-03-29T21:01:07.588Z,15.00
2019-03-29T21:03:37.107Z,15.00
2019-03-29T21:06:06.628Z,14.70
2019-03-29T21:08:36.130Z,14.60
2019-03-29T21:11:07.057Z,14.60
2019-03-29T21:13:36.601Z,14.50
2019-03-29T21:16:06.476Z,14.50
2019-03-29T21:18:36.120Z,14.50
2019-03-29T21:21:05.735Z,14.60
2019-03-29T21:23:35.235Z,14.50
2019-03-29T21:26:04.912Z,14.40
2019-03-29T21:28:35.160Z,14.30
2019-03-29T21:31:04.868Z,14.30
2019-03-29T21:33:34.670Z,14.20
2019-03-29T21:36:04.662Z,14.10
2019-03-29T21:38:34.197Z,14.00
2019-03-29T21:41:04.352Z,13.90
2019-03-29T21:43:33.853Z,13.80
2019-03-29T21:46:03.531Z,13.80
2019-03-29T21:48:33.544Z,13.80
2019-03-29T21:51:02.990Z,13.50
2019-03-29T21:53:32.424Z,13.30
2019-03-29T21:56:02.049Z,13.20
2019-03-29T21:58:31.692Z,13.00
2019-03-29T22:01:01.268Z,13.00
2019-03-29T22:03:30.808Z,13.00
2019-03-29T22:06:00.324Z,13.10
2019-03-29T22:08:30.065Z,13.10
2019-03-29T22:10:59.828Z,13.10
2019-03-29T22:13:29.330Z,13.20
2019-03-29T22:15:59.183Z,13.20
2019-03-29T22:18:37.924Z,13.20
2019-03-29T22:21:00.140Z,13.20
2019-03-29T22:23:29.852Z,13.10
2019-03-29T22:25:59.403Z,13.10
2019-03-29T22:28:28.843Z,13.10
2019-03-29T22:30:58.353Z,13.00
2019-03-29T22:33:28.025Z,12.80
2019-03-29T22:35:57.530Z,12.80
2019-03-29T22:38:26.964Z,12.70
2019-03-29T22:40:56.792Z,12.70
2019-03-29T22:43:26.501Z,12.70
2019-03-29T22:45:56.013Z,12.60
2019-03-29T22:48:25.839Z,12.60
2019-03-29T22:50:55.624Z,12.60
2019-03-29T22:53:25.341Z,12.50
2019-03-29T22:55:55.487Z,12.50
2019-03-29T22:58:28.234Z,12.50
2019-03-29T23:00:56.964Z,12.40
2019-03-29T23:03:26.572Z,12.40
2019-03-29T23:05:56.009Z,12.30
2019-03-29T23:08:25.516Z,12.20
2019-03-29T23:10:55.051Z,12.10
2019-03-29T23:13:25.396Z,12.20
2019-03-29T23:15:54.951Z,12.20
2019-03-29T23:18:24.637Z,12.10
2019-03-29T23:20:54.154Z,12.00
2019-03-29T23:23:23.651Z,12.00
2019-03-29T23:25:53.507Z,11.90
2019-03-29T23:28:23.016Z,11.70
2019-03-29T23:30:52.531Z,11.50
2019-03-29T23:33:22.097Z,11.60
2019-03-29T23:35:51.523Z,11.60
2019-03-29T23:38:21.431Z,11.60
2019-03-29T23:40:50.961Z,11.60
2019-03-29T23:43:20.485Z,11.50
2019-03-29T23:45:49.912Z,11.40
2019-03-29T23:48:19.656Z,11.00
2019-03-29T23:50:49.255Z,10.70
2019-03-29T23:53:18.765Z,10.80
2019-03-29T23:55:48.576Z,10.90
2019-03-29T23:58:18.084Z,10.90
